sensor_id;sensor_type;location;lat;lon;timestamp;pressure;altitude;pressure_sealevel;temperature;humidity
70555;BME280;58104;52.744;15.242;2023-03-14T00:00:09;98602.82;;;18.86;43.42
70555;BME280;58104;52.744;15.242;2023-03-14T00:02:32;98597.39;;;19.00;43.34
70555;BME280;58104;52.744;15.242;2023-03-14T00:04:58;98599.90;;;18.81;43.53
70555;BME280;58104;52.744;15.242;2023-03-14T00:07:23;98607.68;;;18.85;43.67
70555;BME280;58104;52.744;15.242;2023-03-14T00:09:49;98608.90;;;18.88;43.60
70555;BME280;58104;52.744;15.242;2023-03-14T00:12:14;98598.02;;;18.92;43.56
70555;BME280;58104;52.744;15.242;2023-03-14T00:14:39;98600.25;;;19.01;43.68
70555;BME280;58104;52.744;15.242;2023-03-14T00:17:05;98597.79;;;18.90;43.72
70555;BME280;58104;52.744;15.242;2023-03-14T00:19:30;98607.67;;;18.96;43.77
70555;BME280;58104;52.744;15.242;2023-03-14T00:21:56;98600.24;;;18.93;43.78
70555;BME280;58104;52.744;15.242;2023-03-14T00:24:21;98592.33;;;18.94;43.94
70555;BME280;58104;52.744;15.242;2023-03-14T00:26:47;98590.82;;;18.90;43.90
70555;BME280;58104;52.744;15.242;2023-03-14T00:29:12;98599.68;;;18.92;43.94
70555;BME280;58104;52.744;15.242;2023-03-14T00:31:38;98591.58;;;18.98;44.00
70555;BME280;58104;52.744;15.242;2023-03-14T00:34:03;98583.08;;;18.92;43.95
70555;BME280;58104;52.744;15.242;2023-03-14T00:36:28;98577.79;;;18.94;43.97
70555;BME280;58104;52.744;15.242;2023-03-14T00:38:54;98570.96;;;18.92;44.07
70555;BME280;58104;52.744;15.242;2023-03-14T00:41:21;98573.56;;;18.98;44.02
70555;BME280;58104;52.744;15.242;2023-03-14T00:43:45;98576.40;;;18.90;44.04
70555;BME280;58104;52.744;15.242;2023-03-14T00:46:11;98573.24;;;18.94;44.11
70555;BME280;58104;52.744;15.242;2023-03-14T00:48:36;98573.32;;;18.98;44.13
70555;BME280;58104;52.744;15.242;2023-03-14T00:51:01;98568.63;;;18.88;44.21
70555;BME280;58104;52.744;15.242;2023-03-14T00:53:27;98564.30;;;18.90;44.47
70555;BME280;58104;52.744;15.242;2023-03-14T00:55:52;98561.38;;;18.90;44.49
70555;BME280;58104;52.744;15.242;2023-03-14T00:58:18;98547.01;;;18.92;44.36
70555;BME280;58104;52.744;15.242;2023-03-14T01:00:44;98536.03;;;18.93;44.44
70555;BME280;58104;52.744;15.242;2023-03-14T01:03:09;98518.25;;;18.92;44.49
70555;BME280;58104;52.744;15.242;2023-03-14T01:05:34;98515.31;;;18.96;44.43
70555;BME280;58104;52.744;15.242;2023-03-14T01:07:59;98515.68;;;18.96;44.51
70555;BME280;58104;52.744;15.242;2023-03-14T01:10:24;98509.47;;;18.93;44.85
70555;BME280;58104;52.744;15.242;2023-03-14T01:12:50;98502.93;;;18.92;44.90
70555;BME280;58104;52.744;15.242;2023-03-14T01:15:16;98500.91;;;18.96;44.94
70555;BME280;58104;52.744;15.242;2023-03-14T01:17:41;98505.27;;;18.85;45.12
70555;BME280;58104;52.744;15.242;2023-03-14T01:20:09;98513.90;;;18.84;45.27
70555;BME280;58104;52.744;15.242;2023-03-14T01:22:32;98507.12;;;18.92;45.25
70555;BME280;58104;52.744;15.242;2023-03-14T01:24:57;98492.64;;;18.92;45.27
70555;BME280;58104;52.744;15.242;2023-03-14T01:27:22;98496.03;;;18.90;45.31
70555;BME280;58104;52.744;15.242;2023-03-14T01:29:48;98493.76;;;18.79;45.47
70555;BME280;58104;52.744;15.242;2023-03-14T01:32:13;98490.82;;;18.87;45.44
70555;BME280;58104;52.744;15.242;2023-03-14T01:34:39;98485.16;;;18.90;45.42
70555;BME280;58104;52.744;15.242;2023-03-14T01:37:04;98483.21;;;18.82;45.48
70555;BME280;58104;52.744;15.242;2023-03-14T01:39:30;98486.15;;;18.89;45.47
70555;BME280;58104;52.744;15.242;2023-03-14T01:41:55;98479.58;;;18.90;45.57
70555;BME280;58104;52.744;15.242;2023-03-14T01:44:20;98480.07;;;18.90;45.64
70555;BME280;58104;52.744;15.242;2023-03-14T01:46:46;98489.74;;;18.94;45.61
70555;BME280;58104;52.744;15.242;2023-03-14T01:49:18;98493.80;;;18.90;45.70
70555;BME280;58104;52.744;15.242;2023-03-14T01:51:44;98499.03;;;19.00;45.67
70555;BME280;58104;52.744;15.242;2023-03-14T01:54:07;98499.83;;;18.98;45.61
70555;BME280;58104;52.744;15.242;2023-03-14T01:56:28;98503.44;;;18.96;45.67
70555;BME280;58104;52.744;15.242;2023-03-14T01:58:53;98511.58;;;18.97;45.70
70555;BME280;58104;52.744;15.242;2023-03-14T02:01:21;98523.27;;;19.03;45.70
70555;BME280;58104;52.744;15.242;2023-03-14T02:03:47;98529.84;;;19.04;45.87
70555;BME280;58104;52.744;15.242;2023-03-14T02:06:10;98529.12;;;18.99;45.91
70555;BME280;58104;52.744;15.242;2023-03-14T02:08:35;98539.19;;;19.00;45.87
70555;BME280;58104;52.744;15.242;2023-03-14T02:11:00;98537.88;;;18.94;45.88
70555;BME280;58104;52.744;15.242;2023-03-14T02:13:25;98526.06;;;19.02;45.87
70555;BME280;58104;52.744;15.242;2023-03-14T02:15:51;98521.73;;;18.97;46.01
70555;BME280;58104;52.744;15.242;2023-03-14T02:18:17;98524.41;;;18.97;46.12
70555;BME280;58104;52.744;15.242;2023-03-14T02:20:47;98528.38;;;18.92;46.08
70555;BME280;58104;52.744;15.242;2023-03-14T02:23:07;98527.73;;;18.92;46.16
70555;BME280;58104;52.744;15.242;2023-03-14T02:25:39;98529.39;;;18.94;46.23
70555;BME280;58104;52.744;15.242;2023-03-14T02:27:58;98537.18;;;18.93;46.37
70555;BME280;58104;52.744;15.242;2023-03-14T02:30:26;98541.26;;;19.08;46.39
70555;BME280;58104;52.744;15.242;2023-03-14T02:32:53;98553.64;;;18.94;46.48
70555;BME280;58104;52.744;15.242;2023-03-14T02:35:18;98545.42;;;19.02;46.59
70555;BME280;58104;52.744;15.242;2023-03-14T02:37:42;98545.58;;;18.99;46.62
70555;BME280;58104;52.744;15.242;2023-03-14T02:40:06;98539.09;;;18.90;46.77
70555;BME280;58104;52.744;15.242;2023-03-14T02:42:30;98541.63;;;18.94;46.91
70555;BME280;58104;52.744;15.242;2023-03-14T02:45:01;98538.37;;;18.95;46.89
70555;BME280;58104;52.744;15.242;2023-03-14T02:47:27;98535.29;;;18.90;47.12
70555;BME280;58104;52.744;15.242;2023-03-14T02:49:47;98526.73;;;18.94;47.09
70555;BME280;58104;52.744;15.242;2023-03-14T02:52:12;98515.45;;;18.96;47.13
70555;BME280;58104;52.744;15.242;2023-03-14T02:54:37;98512.44;;;18.97;47.18
70555;BME280;58104;52.744;15.242;2023-03-14T02:57:03;98509.07;;;19.02;47.28
70555;BME280;58104;52.744;15.242;2023-03-14T02:59:28;98504.10;;;19.05;47.30
70555;BME280;58104;52.744;15.242;2023-03-14T03:01:54;98502.46;;;19.00;47.35
70555;BME280;58104;52.744;15.242;2023-03-14T03:04:19;98501.03;;;19.06;47.43
70555;BME280;58104;52.744;15.242;2023-03-14T03:06:45;98490.54;;;19.08;47.46
70555;BME280;58104;52.744;15.242;2023-03-14T03:09:10;98488.01;;;19.01;47.47
70555;BME280;58104;52.744;15.242;2023-03-14T03:11:35;98477.16;;;19.02;47.44
70555;BME280;58104;52.744;15.242;2023-03-14T03:14:01;98468.50;;;19.01;47.49
70555;BME280;58104;52.744;15.242;2023-03-14T03:16:26;98463.47;;;19.08;47.46
70555;BME280;58104;52.744;15.242;2023-03-14T03:18:52;98456.06;;;19.00;47.49
70555;BME280;58104;52.744;15.242;2023-03-14T03:21:17;98451.09;;;18.94;47.99
70555;BME280;58104;52.744;15.242;2023-03-14T03:23:43;98444.61;;;19.07;47.91
70555;BME280;58104;52.744;15.242;2023-03-14T03:26:09;98442.99;;;18.93;47.85
70555;BME280;58104;52.744;15.242;2023-03-14T03:28:33;98435.94;;;19.00;47.78
70555;BME280;58104;52.744;15.242;2023-03-14T03:30:59;98435.97;;;19.05;47.69
70555;BME280;58104;52.744;15.242;2023-03-14T03:33:24;98438.81;;;19.05;47.67
70555;BME280;58104;52.744;15.242;2023-03-14T03:35:51;98439.45;;;18.93;47.63
70555;BME280;58104;52.744;15.242;2023-03-14T03:38:16;98431.00;;;19.00;47.56
70555;BME280;58104;52.744;15.242;2023-03-14T03:40:41;98434.22;;;19.01;47.53
70555;BME280;58104;52.744;15.242;2023-03-14T03:43:06;98435.35;;;19.06;47.60
70555;BME280;58104;52.744;15.242;2023-03-14T03:45:31;98434.22;;;19.08;47.56
70555;BME280;58104;52.744;15.242;2023-03-14T03:47:57;98428.12;;;18.99;47.61
70555;BME280;58104;52.744;15.242;2023-03-14T03:50:22;98427.26;;;18.93;48.01
70555;BME280;58104;52.744;15.242;2023-03-14T03:52:48;98416.53;;;18.98;47.91
70555;BME280;58104;52.744;15.242;2023-03-14T03:55:13;98411.31;;;19.03;47.90
70555;BME280;58104;52.744;15.242;2023-03-14T03:57:38;98413.79;;;18.98;47.92
70555;BME280;58104;52.744;15.242;2023-03-14T04:00:05;98407.25;;;19.07;47.95
70555;BME280;58104;52.744;15.242;2023-03-14T04:02:29;98403.05;;;19.12;47.98
70555;BME280;58104;52.744;15.242;2023-03-14T04:04:55;98399.61;;;19.00;48.01
70555;BME280;58104;52.744;15.242;2023-03-14T04:07:20;98396.68;;;19.02;48.03
70555;BME280;58104;52.744;15.242;2023-03-14T04:09:46;98386.62;;;19.01;48.10
70555;BME280;58104;52.744;15.242;2023-03-14T04:12:11;98384.57;;;19.01;48.13
70555;BME280;58104;52.744;15.242;2023-03-14T04:14:36;98394.07;;;19.07;48.24
70555;BME280;58104;52.744;15.242;2023-03-14T04:17:02;98391.73;;;19.02;48.22
70555;BME280;58104;52.744;15.242;2023-03-14T04:19:27;98383.52;;;19.01;48.32
70555;BME280;58104;52.744;15.242;2023-03-14T04:21:53;98380.65;;;18.98;48.50
70555;BME280;58104;52.744;15.242;2023-03-14T04:24:18;98374.84;;;19.05;48.53
70555;BME280;58104;52.744;15.242;2023-03-14T04:26:43;98380.82;;;19.05;48.56
70555;BME280;58104;52.744;15.242;2023-03-14T04:29:09;98384.26;;;18.97;48.64
70555;BME280;58104;52.744;15.242;2023-03-14T04:31:34;98383.78;;;18.95;48.57
70555;BME280;58104;52.744;15.242;2023-03-14T04:34:00;98375.48;;;19.00;48.61
70555;BME280;58104;52.744;15.242;2023-03-14T04:36:25;98376.77;;;18.99;48.61
70555;BME280;58104;52.744;15.242;2023-03-14T04:38:51;98376.21;;;18.96;48.99
70555;BME280;58104;52.744;15.242;2023-03-14T04:41:16;98373.05;;;18.97;48.79
70555;BME280;58104;52.744;15.242;2023-03-14T04:43:41;98388.45;;;18.97;48.88
70555;BME280;58104;52.744;15.242;2023-03-14T04:46:07;98395.62;;;18.97;48.77
70555;BME280;58104;52.744;15.242;2023-03-14T04:48:32;98398.53;;;18.95;48.76
70555;BME280;58104;52.744;15.242;2023-03-14T04:50:58;98387.30;;;18.98;48.66
70555;BME280;58104;52.744;15.242;2023-03-14T04:53:23;98382.65;;;19.01;48.60
70555;BME280;58104;52.744;15.242;2023-03-14T04:55:49;98380.55;;;19.09;48.73
70555;BME280;58104;52.744;15.242;2023-03-14T04:58:14;98375.87;;;18.94;49.21
70555;BME280;58104;52.744;15.242;2023-03-14T05:00:39;98382.39;;;19.00;49.15
70555;BME280;58104;52.744;15.242;2023-03-14T05:03:05;98383.74;;;18.97;49.30
70555;BME280;58104;52.744;15.242;2023-03-14T05:05:30;98389.01;;;19.01;49.24
70555;BME280;58104;52.744;15.242;2023-03-14T05:07:55;98381.49;;;19.04;49.24
70555;BME280;58104;52.744;15.242;2023-03-14T05:10:20;98371.89;;;19.12;49.26
70555;BME280;58104;52.744;15.242;2023-03-14T05:12:46;98363.46;;;19.03;49.34
70555;BME280;58104;52.744;15.242;2023-03-14T05:15:11;98369.55;;;19.04;49.36
70555;BME280;58104;52.744;15.242;2023-03-14T05:17:37;98374.32;;;19.05;49.32
70555;BME280;58104;52.744;15.242;2023-03-14T05:20:03;98368.38;;;18.96;49.42
70555;BME280;58104;52.744;15.242;2023-03-14T05:22:27;98370.54;;;19.00;49.47
70555;BME280;58104;52.744;15.242;2023-03-14T05:24:53;98365.73;;;19.07;49.45
70555;BME280;58104;52.744;15.242;2023-03-14T05:27:18;98350.00;;;19.01;49.48
70555;BME280;58104;52.744;15.242;2023-03-14T05:29:44;98348.84;;;19.05;49.42
70555;BME280;58104;52.744;15.242;2023-03-14T05:32:09;98354.93;;;19.04;49.75
70555;BME280;58104;52.744;15.242;2023-03-14T05:34:35;98356.74;;;19.02;49.93
70555;BME280;58104;52.744;15.242;2023-03-14T05:37:00;98364.40;;;18.93;49.82
70555;BME280;58104;52.744;15.242;2023-03-14T05:39:25;98365.43;;;18.98;49.57
70555;BME280;58104;52.744;15.242;2023-03-14T05:41:51;98361.52;;;19.09;49.46
70555;BME280;58104;52.744;15.242;2023-03-14T05:44:17;98359.79;;;19.09;49.21
70555;BME280;58104;52.744;15.242;2023-03-14T05:46:42;98363.40;;;19.12;49.22
70555;BME280;58104;52.744;15.242;2023-03-14T05:49:07;98368.17;;;19.00;49.10
70555;BME280;58104;52.744;15.242;2023-03-14T05:51:32;98368.42;;;19.05;49.05
70555;BME280;58104;52.744;15.242;2023-03-14T05:53:58;98361.06;;;18.98;48.93
70555;BME280;58104;52.744;15.242;2023-03-14T05:56:23;98363.12;;;19.02;48.82
70555;BME280;58104;52.744;15.242;2023-03-14T05:58:49;98355.52;;;19.08;48.68
70555;BME280;58104;52.744;15.242;2023-03-14T06:01:14;98350.50;;;19.13;48.67
70555;BME280;58104;52.744;15.242;2023-03-14T06:03:40;98348.16;;;19.13;48.70
70555;BME280;58104;52.744;15.242;2023-03-14T06:06:06;98346.76;;;19.10;48.74
70555;BME280;58104;52.744;15.242;2023-03-14T06:08:30;98344.84;;;19.12;49.56
70555;BME280;58104;52.744;15.242;2023-03-14T06:10:57;98338.11;;;19.23;49.76
70555;BME280;58104;52.744;15.242;2023-03-14T06:13:21;98343.34;;;19.29;49.58
70555;BME280;58104;52.744;15.242;2023-03-14T06:15:47;98353.86;;;19.22;49.50
70555;BME280;58104;52.744;15.242;2023-03-14T06:18:12;98360.35;;;19.17;49.32
70555;BME280;58104;52.744;15.242;2023-03-14T06:20:37;98357.85;;;19.13;49.35
70555;BME280;58104;52.744;15.242;2023-03-14T06:23:03;98355.46;;;19.13;49.29
70555;BME280;58104;52.744;15.242;2023-03-14T06:25:28;98345.48;;;19.09;49.38
70555;BME280;58104;52.744;15.242;2023-03-14T06:27:53;98342.67;;;19.05;49.46
70555;BME280;58104;52.744;15.242;2023-03-14T06:30:19;98349.08;;;19.11;49.40
70555;BME280;58104;52.744;15.242;2023-03-14T06:32:44;98349.49;;;19.06;50.00
70555;BME280;58104;52.744;15.242;2023-03-14T06:35:10;98348.12;;;19.13;49.26
70555;BME280;58104;52.744;15.242;2023-03-14T06:37:35;98358.06;;;19.12;48.97
70555;BME280;58104;52.744;15.242;2023-03-14T06:40:00;98359.26;;;19.16;48.63
70555;BME280;58104;52.744;15.242;2023-03-14T06:42:26;98359.67;;;19.20;48.18
70555;BME280;58104;52.744;15.242;2023-03-14T06:44:51;98363.03;;;19.38;47.69
70555;BME280;58104;52.744;15.242;2023-03-14T06:47:17;98362.98;;;19.41;47.10
70555;BME280;58104;52.744;15.242;2023-03-14T06:49:42;98362.06;;;19.48;46.63
70555;BME280;58104;52.744;15.242;2023-03-14T06:52:07;98365.79;;;19.38;45.85
70555;BME280;58104;52.744;15.242;2023-03-14T06:54:33;98365.71;;;19.53;45.78
70555;BME280;58104;52.744;15.242;2023-03-14T06:56:58;98365.66;;;19.47;44.78
70555;BME280;58104;52.744;15.242;2023-03-14T06:59:24;98365.02;;;19.27;44.91
70555;BME280;58104;52.744;15.242;2023-03-14T07:01:49;98371.35;;;19.33;43.20
70555;BME280;58104;52.744;15.242;2023-03-14T07:04:15;98369.04;;;18.94;44.08
70555;BME280;58104;52.744;15.242;2023-03-14T07:06:40;98367.72;;;19.21;43.47
70555;BME280;58104;52.744;15.242;2023-03-14T07:09:05;98376.63;;;19.04;42.40
70555;BME280;58104;52.744;15.242;2023-03-14T07:11:31;98399.76;;;18.89;42.29
70555;BME280;58104;52.744;15.242;2023-03-14T07:13:56;98424.85;;;19.31;43.35
70555;BME280;58104;52.744;15.242;2023-03-14T07:16:22;98424.89;;;18.95;43.26
70555;BME280;58104;52.744;15.242;2023-03-14T07:18:47;98410.76;;;18.97;42.32
70555;BME280;58104;52.744;15.242;2023-03-14T07:21:12;98412.73;;;18.14;43.92
70555;BME280;58104;52.744;15.242;2023-03-14T07:23:38;98418.23;;;18.81;43.99
70555;BME280;58104;52.744;15.242;2023-03-14T07:26:04;98411.67;;;18.86;43.49
70555;BME280;58104;52.744;15.242;2023-03-14T07:28:29;98408.44;;;19.10;43.15
70555;BME280;58104;52.744;15.242;2023-03-14T07:30:54;98409.14;;;19.31;42.87
70555;BME280;58104;52.744;15.242;2023-03-14T07:33:20;98406.15;;;19.32;43.01
70555;BME280;58104;52.744;15.242;2023-03-14T07:35:46;98396.90;;;19.49;42.57
70555;BME280;58104;52.744;15.242;2023-03-14T07:38:10;98389.92;;;19.49;42.52
70555;BME280;58104;52.744;15.242;2023-03-14T07:40:35;98388.83;;;19.41;42.76
70555;BME280;58104;52.744;15.242;2023-03-14T07:43:01;98388.29;;;19.42;42.73
70555;BME280;58104;52.744;15.242;2023-03-14T07:45:26;98401.70;;;19.40;42.82
70555;BME280;58104;52.744;15.242;2023-03-14T07:47:52;98412.18;;;19.44;42.78
70555;BME280;58104;52.744;15.242;2023-03-14T07:50:17;98410.72;;;19.58;42.66
70555;BME280;58104;52.744;15.242;2023-03-14T07:52:43;98411.93;;;19.72;41.68
70555;BME280;58104;52.744;15.242;2023-03-14T07:55:08;98420.36;;;20.14;40.57
70555;BME280;58104;52.744;15.242;2023-03-14T07:57:33;98412.90;;;20.25;40.34
70555;BME280;58104;52.744;15.242;2023-03-14T07:59:59;98415.24;;;20.31;40.10
70555;BME280;58104;52.744;15.242;2023-03-14T08:02:24;98407.91;;;19.98;40.20
70555;BME280;58104;52.744;15.242;2023-03-14T08:04:50;98406.93;;;20.36;39.59
70555;BME280;58104;52.744;15.242;2023-03-14T08:07:16;98401.00;;;20.18;39.39
70555;BME280;58104;52.744;15.242;2023-03-14T08:09:41;98411.67;;;20.05;39.54
70555;BME280;58104;52.744;15.242;2023-03-14T08:12:07;98405.24;;;19.93;40.18
70555;BME280;58104;52.744;15.242;2023-03-14T08:14:32;98391.06;;;20.45;39.41
70555;BME280;58104;52.744;15.242;2023-03-14T08:16:57;98393.20;;;20.48;39.69
70555;BME280;58104;52.744;15.242;2023-03-14T08:19:23;98411.96;;;20.52;39.41
70555;BME280;58104;52.744;15.242;2023-03-14T08:21:48;98397.96;;;20.21;40.29
70555;BME280;58104;52.744;15.242;2023-03-14T08:24:14;98415.86;;;19.89;40.13
70555;BME280;58104;52.744;15.242;2023-03-14T08:26:39;98414.81;;;19.96;39.46
70555;BME280;58104;52.744;15.242;2023-03-14T08:29:04;98410.87;;;19.51;39.95
70555;BME280;58104;52.744;15.242;2023-03-14T08:31:30;98399.22;;;20.48;39.08
70555;BME280;58104;52.744;15.242;2023-03-14T08:33:57;98411.57;;;20.93;38.77
70555;BME280;58104;52.744;15.242;2023-03-14T08:36:20;98407.77;;;20.68;39.46
70555;BME280;58104;52.744;15.242;2023-03-14T08:38:46;98411.47;;;20.78;39.52
70555;BME280;58104;52.744;15.242;2023-03-14T08:41:11;98395.18;;;20.97;39.29
70555;BME280;58104;52.744;15.242;2023-03-14T08:43:37;98396.91;;;20.85;39.38
70555;BME280;58104;52.744;15.242;2023-03-14T08:46:03;98391.33;;;20.85;39.09
70555;BME280;58104;52.744;15.242;2023-03-14T08:48:28;98390.88;;;20.92;38.76
70555;BME280;58104;52.744;15.242;2023-03-14T08:50:53;98404.50;;;21.16;38.28
70555;BME280;58104;52.744;15.242;2023-03-14T08:53:18;98414.26;;;21.14;38.62
70555;BME280;58104;52.744;15.242;2023-03-14T08:55:43;98403.07;;;21.21;38.69
70555;BME280;58104;52.744;15.242;2023-03-14T08:58:09;98393.50;;;21.12;38.99
70555;BME280;58104;52.744;15.242;2023-03-14T09:00:34;98391.23;;;20.93;39.40
70555;BME280;58104;52.744;15.242;2023-03-14T09:02:59;98390.47;;;20.97;39.34
70555;BME280;58104;52.744;15.242;2023-03-14T09:05:24;98385.19;;;20.96;39.71
70555;BME280;58104;52.744;15.242;2023-03-14T09:07:49;98394.97;;;20.98;39.48
70555;BME280;58104;52.744;15.242;2023-03-14T09:10:15;98391.82;;;20.84;39.64
70555;BME280;58104;52.744;15.242;2023-03-14T09:12:40;98393.48;;;21.25;39.23
70555;BME280;58104;52.744;15.242;2023-03-14T09:15:07;98383.35;;;21.23;39.11
70555;BME280;58104;52.744;15.242;2023-03-14T09:17:31;98384.81;;;21.23;39.11
70555;BME280;58104;52.744;15.242;2023-03-14T09:19:56;98385.67;;;21.34;39.09
70555;BME280;58104;52.744;15.242;2023-03-14T09:22:22;98391.44;;;21.50;39.00
70555;BME280;58104;52.744;15.242;2023-03-14T09:24:49;98393.16;;;21.41;39.08
70555;BME280;58104;52.744;15.242;2023-03-14T09:27:14;98389.58;;;21.38;38.94
70555;BME280;58104;52.744;15.242;2023-03-14T09:29:38;98389.40;;;21.06;39.44
70555;BME280;58104;52.744;15.242;2023-03-14T09:32:04;98393.73;;;21.21;38.91
70555;BME280;58104;52.744;15.242;2023-03-14T09:34:29;98391.34;;;21.26;38.12
70555;BME280;58104;52.744;15.242;2023-03-14T09:36:54;98399.66;;;20.99;38.67
70555;BME280;58104;52.744;15.242;2023-03-14T09:39:20;98390.83;;;20.19;39.72
70555;BME280;58104;52.744;15.242;2023-03-14T09:41:47;98391.93;;;20.69;38.75
70555;BME280;58104;52.744;15.242;2023-03-14T09:44:14;98396.24;;;20.58;38.95
70555;BME280;58104;52.744;15.242;2023-03-14T09:46:38;98391.98;;;20.92;38.27
70555;BME280;58104;52.744;15.242;2023-03-14T09:49:02;98394.19;;;20.77;38.84
70555;BME280;58104;52.744;15.242;2023-03-14T09:51:27;98396.11;;;21.12;37.94
70555;BME280;58104;52.744;15.242;2023-03-14T09:53:52;98401.02;;;20.45;38.77
70555;BME280;58104;52.744;15.242;2023-03-14T09:56:20;98404.47;;;20.48;38.50
70555;BME280;58104;52.744;15.242;2023-03-14T09:58:45;98399.53;;;20.34;38.66
70555;BME280;58104;52.744;15.242;2023-03-14T10:01:11;98410.42;;;20.38;38.45
70555;BME280;58104;52.744;15.242;2023-03-14T10:03:35;98397.20;;;20.48;39.00
70555;BME280;58104;52.744;15.242;2023-03-14T10:05:59;98414.71;;;20.00;38.74
70555;BME280;58104;52.744;15.242;2023-03-14T10:08:25;98414.27;;;19.79;39.66
70555;BME280;58104;52.744;15.242;2023-03-14T10:10:50;98404.52;;;20.17;39.24
70555;BME280;58104;52.744;15.242;2023-03-14T10:13:17;98426.88;;;20.63;38.37
70555;BME280;58104;52.744;15.242;2023-03-14T10:15:41;98430.79;;;20.56;38.69
70555;BME280;58104;52.744;15.242;2023-03-14T10:18:11;98412.90;;;20.52;38.26
70555;BME280;58104;52.744;15.242;2023-03-14T10:20:33;98419.80;;;20.83;37.87
70555;BME280;58104;52.744;15.242;2023-03-14T10:22:57;98408.54;;;20.72;38.18
70555;BME280;58104;52.744;15.242;2023-03-14T10:25:27;98411.33;;;20.77;37.97
70555;BME280;58104;52.744;15.242;2023-03-14T10:27:47;98405.52;;;20.41;38.19
70555;BME280;58104;52.744;15.242;2023-03-14T10:32:39;98406.56;;;20.49;38.32
70555;BME280;58104;52.744;15.242;2023-03-14T10:35:17;98415.62;;;20.35;38.25
70555;BME280;58104;52.744;15.242;2023-03-14T10:37:29;98434.45;;;20.19;38.01
70555;BME280;58104;52.744;15.242;2023-03-14T10:39:58;98421.63;;;20.45;37.74
70555;BME280;58104;52.744;15.242;2023-03-14T10:42:23;98420.91;;;20.02;38.41
70555;BME280;58104;52.744;15.242;2023-03-14T10:44:46;98424.78;;;19.96;39.02
70555;BME280;58104;52.744;15.242;2023-03-14T10:47:18;98420.83;;;20.33;37.77
70555;BME280;58104;52.744;15.242;2023-03-14T10:49:37;98417.69;;;20.48;37.44
70555;BME280;58104;52.744;15.242;2023-03-14T10:52:13;98428.50;;;20.33;37.40
70555;BME280;58104;52.744;15.242;2023-03-14T10:54:30;98438.87;;;20.09;38.51
70555;BME280;58104;52.744;15.242;2023-03-14T10:56:58;98421.53;;;20.44;37.77
70555;BME280;58104;52.744;15.242;2023-03-14T10:59:18;98430.79;;;20.10;37.44
70555;BME280;58104;52.744;15.242;2023-03-14T11:01:48;98421.78;;;20.48;37.68
70555;BME280;58104;52.744;15.242;2023-03-14T11:04:18;98424.09;;;20.89;37.12
70555;BME280;58104;52.744;15.242;2023-03-14T11:06:40;98419.06;;;21.24;36.67
70555;BME280;58104;52.744;15.242;2023-03-14T11:09:03;98428.80;;;21.46;36.56
70555;BME280;58104;52.744;15.242;2023-03-14T11:11:28;98426.99;;;21.41;36.69
70555;BME280;58104;52.744;15.242;2023-03-14T11:13:58;98431.47;;;21.47;36.49
70555;BME280;58104;52.744;15.242;2023-03-14T11:16:20;98417.97;;;21.22;36.86
70555;BME280;58104;52.744;15.242;2023-03-14T11:18:51;98424.99;;;21.28;36.91
70555;BME280;58104;52.744;15.242;2023-03-14T11:21:11;98418.53;;;20.84;36.66
70555;BME280;58104;52.744;15.242;2023-03-14T11:23:38;98421.16;;;20.43;37.23
70555;BME280;58104;52.744;15.242;2023-03-14T11:26:01;98428.02;;;20.14;37.66
70555;BME280;58104;52.744;15.242;2023-03-14T11:28:27;98432.11;;;20.62;37.17
70555;BME280;58104;52.744;15.242;2023-03-14T11:30:52;98428.71;;;20.20;38.38
70555;BME280;58104;52.744;15.242;2023-03-14T11:33:15;98440.60;;;19.96;38.06
70555;BME280;58104;52.744;15.242;2023-03-14T11:35:44;98431.53;;;20.70;37.55
70555;BME280;58104;52.744;15.242;2023-03-14T11:38:12;98446.76;;;20.89;36.43
70555;BME280;58104;52.744;15.242;2023-03-14T11:40:31;98440.02;;;20.11;38.11
70555;BME280;58104;52.744;15.242;2023-03-14T11:43:04;98421.74;;;20.39;36.52
70555;BME280;58104;52.744;15.242;2023-03-14T11:45:25;98436.48;;;20.12;37.62
70555;BME280;58104;52.744;15.242;2023-03-14T11:47:51;98435.58;;;19.66;38.86
70555;BME280;58104;52.744;15.242;2023-03-14T11:50:17;98423.91;;;20.61;37.16
70555;BME280;58104;52.744;15.242;2023-03-14T11:52:41;98433.86;;;20.51;37.29
70555;BME280;58104;52.744;15.242;2023-03-14T11:55:07;98424.86;;;20.15;36.87
70555;BME280;58104;52.744;15.242;2023-03-14T11:57:28;98431.93;;;19.61;37.89
70555;BME280;58104;52.744;15.242;2023-03-14T11:59:59;98419.89;;;19.36;39.30
70555;BME280;58104;52.744;15.242;2023-03-14T12:02:24;98418.39;;;20.05;38.45
70555;BME280;58104;52.744;15.242;2023-03-14T12:04:55;98404.26;;;20.58;38.32
70555;BME280;58104;52.744;15.242;2023-03-14T12:07:17;98399.55;;;20.90;37.93
70555;BME280;58104;52.744;15.242;2023-03-14T12:09:35;98404.60;;;21.12;37.52
70555;BME280;58104;52.744;15.242;2023-03-14T12:12:02;98400.17;;;21.17;37.52
70555;BME280;58104;52.744;15.242;2023-03-14T12:14:27;98402.78;;;21.30;37.44
70555;BME280;58104;52.744;15.242;2023-03-14T12:16:54;98394.29;;;21.24;37.52
70555;BME280;58104;52.744;15.242;2023-03-14T12:19:27;98391.91;;;21.25;37.85
70555;BME280;58104;52.744;15.242;2023-03-14T12:21:49;98389.36;;;21.31;37.86
70555;BME280;58104;52.744;15.242;2023-03-14T12:24:16;98390.88;;;21.31;37.86
70555;BME280;58104;52.744;15.242;2023-03-14T12:38:51;98390.44;;;21.22;38.36
70555;BME280;58104;52.744;15.242;2023-03-14T12:41:13;98384.29;;;20.90;38.47
70555;BME280;58104;52.744;15.242;2023-03-14T12:43:32;98380.46;;;20.34;37.96
70555;BME280;58104;52.744;15.242;2023-03-14T12:46:07;98386.88;;;20.21;37.59
70555;BME280;58104;52.744;15.242;2023-03-14T12:48:22;98376.93;;;20.10;38.13
70555;BME280;58104;52.744;15.242;2023-03-14T12:50:53;98383.27;;;19.80;38.72
70555;BME280;58104;52.744;15.242;2023-03-14T12:55:41;98380.17;;;19.93;38.59